Time;durP1;ratioP1;P1;durP2;ratioP2;P2;SDS_P1;SDS_P2;PMS_P1;PMS_P2;Temp;Humidity;BMP_temperature;BMP_pressure;BME280_temperature;BME280_humidity;BME280_pressure;Samples;Min_cycle;Max_cycle;Signal;HPM_P1;HPM_P2
2023/05/29 00:01:51;;;;;;;7.55;4.97;;;;;;;24.17;39.55;100201.59;5074823;28;20056;-68
2023/05/29 00:04:21;;;;;;;9.68;5.32;;;;;;;24.15;39.32;100188.16;5074599;28;20044;-67
2023/05/29 00:06:50;;;;;;;9.00;5.00;;;;;;;24.13;39.35;100198.38;5074559;28;20049;-67
2023/05/29 00:09:18;;;;;;;7.70;5.20;;;;;;;24.12;39.30;100182.19;5074477;28;20048;-67
2023/05/29 00:11:51;;;;;;;8.50;5.32;;;;;;;24.10;39.37;100187.81;5074126;28;20052;-67
2023/05/29 00:14:20;;;;;;;6.97;5.07;;;;;;;24.09;39.48;100193.47;5074514;28;20087;-68
2023/05/29 00:16:49;;;;;;;10.02;5.47;;;;;;;24.07;39.33;100180.03;5074231;28;20048;-68
2023/05/29 00:19:19;;;;;;;7.85;5.15;;;;;;;24.05;39.45;100182.09;5074302;28;20462;-69
2023/05/29 00:21:50;;;;;;;8.38;5.32;;;;;;;24.05;39.39;100184.81;5074231;28;20143;-68
2023/05/29 00:24:19;;;;;;;7.18;4.95;;;;;;;24.03;39.52;100189.59;5074051;28;20067;-69
2023/05/29 00:26:51;;;;;;;6.68;4.72;;;;;;;24.01;39.41;100188.06;5074226;28;20052;-69
2023/05/29 00:29:21;;;;;;;7.68;5.15;;;;;;;24.01;39.61;100193.50;5074189;28;20053;-69
2023/05/29 00:31:49;;;;;;;8.40;4.97;;;;;;;23.98;39.64;100192.84;5073915;28;20091;-69
2023/05/29 00:34:17;;;;;;;8.50;5.00;;;;;;;23.99;39.67;100196.41;5074046;28;20429;-69
2023/05/29 00:36:46;;;;;;;8.68;5.20;;;;;;;23.97;39.71;100195.75;5073731;28;20052;-69
2023/05/29 00:39:14;;;;;;;7.40;4.90;;;;;;;23.96;39.62;100194.06;5072955;28;20049;-68
2023/05/29 00:41:42;;;;;;;9.48;4.97;;;;;;;23.94;39.69;100194.25;5073770;28;20430;-69
2023/05/29 00:44:12;;;;;;;8.07;5.13;;;;;;;23.93;39.74;100195.28;5073926;28;20048;-68
2023/05/29 00:46:40;;;;;;;8.35;5.05;;;;;;;23.93;39.67;100191.69;5073910;28;20044;-69
2023/05/29 00:49:08;;;;;;;7.55;4.78;;;;;;;23.92;39.73;100190.84;5073773;28;20060;-68
2023/05/29 00:51:37;;;;;;;7.40;5.00;;;;;;;23.91;39.69;100185.56;5073552;28;20140;-69
2023/05/29 00:54:07;;;;;;;7.70;4.63;;;;;;;23.89;39.78;100191.19;5073614;28;20045;-68
2023/05/29 00:56:36;;;;;;;7.53;4.85;;;;;;;23.88;39.48;100184.06;5073620;28;20060;-68
2023/05/29 00:59:06;;;;;;;8.20;4.82;;;;;;;23.87;39.71;100187.81;5073534;28;20049;-67
2023/05/29 01:01:36;;;;;;;7.35;4.63;;;;;;;23.85;39.77;100173.53;5073574;28;20127;-68
2023/05/29 01:04:06;;;;;;;7.72;4.78;;;;;;;23.85;39.79;100180.88;5073414;28;20134;-67
2023/05/29 01:06:34;;;;;;;6.95;4.45;;;;;;;23.83;39.91;100183.75;5073566;28;20051;-67
2023/05/29 01:09:03;;;;;;;8.73;4.78;;;;;;;23.82;39.86;100179.31;5073524;28;20096;-67
2023/05/29 01:11:37;;;;;;;6.90;4.50;;;;;;;23.81;39.87;100183.06;5073194;28;20045;-68
2023/05/29 01:14:10;;;;;;;6.32;4.30;;;;;;;23.80;39.92;100184.09;5073398;28;20163;-68
2023/05/29 01:16:50;;;;;;;7.28;4.63;;;;;;;23.79;39.90;100174.25;5073103;28;20409;-68
2023/05/29 01:19:35;;;;;;;7.80;4.72;;;;;;;23.79;40.09;100181.56;5073131;28;20523;-68
2023/05/29 01:22:13;;;;;;;7.25;4.43;;;;;;;23.77;39.95;100179.03;5073217;28;20052;-68
2023/05/29 01:24:51;;;;;;;7.93;4.70;;;;;;;23.75;40.16;100172.91;5073054;28;20048;-68
2023/05/29 01:27:25;;;;;;;8.10;4.97;;;;;;;23.75;40.15;100170.19;5072968;28;20055;-68
2023/05/29 01:29:56;;;;;;;6.80;4.65;;;;;;;23.74;40.04;100163.06;5072866;28;20044;-68
2023/05/29 01:32:26;;;;;;;8.10;4.40;;;;;;;23.73;40.36;100158.63;5073026;28;20114;-68
2023/05/29 01:34:54;;;;;;;6.82;4.50;;;;;;;23.70;40.08;100168.00;5072708;28;20044;-68
2023/05/29 01:37:23;;;;;;;6.90;4.38;;;;;;;23.70;40.27;100167.16;5072587;28;20055;-68
2023/05/29 01:39:51;;;;;;;6.90;4.75;;;;;;;23.69;40.26;100171.75;5073033;28;20044;-68
2023/05/29 01:42:21;;;;;;;6.97;4.57;;;;;;;23.67;40.20;100160.19;5072654;28;20147;-68
2023/05/29 01:44:50;;;;;;;6.65;4.60;;;;;;;23.67;40.24;100156.63;5072773;28;20045;-68
2023/05/29 01:47:19;;;;;;;7.72;4.50;;;;;;;23.65;40.26;100159.53;5072658;28;20052;-68
2023/05/29 01:49:49;;;;;;;7.95;4.55;;;;;;;23.65;40.32;100155.97;5072429;28;20118;-68
2023/05/29 01:52:18;;;;;;;7.75;4.40;;;;;;;23.63;40.27;100158.00;5072455;28;20056;-68
2023/05/29 01:54:46;;;;;;;8.05;4.90;;;;;;;23.63;40.23;100160.72;5072710;28;20440;-68
2023/05/29 01:57:14;;;;;;;7.05;4.63;;;;;;;23.60;40.14;100161.09;5072214;28;20053;-68
2023/05/29 01:59:44;;;;;;;7.25;4.70;;;;;;;23.60;40.24;100155.63;5072462;28;20106;-68
2023/05/29 02:02:12;;;;;;;6.22;4.47;;;;;;;23.59;40.25;100156.66;5072431;28;20064;-68
2023/05/29 02:04:40;;;;;;;7.78;4.82;;;;;;;23.57;40.20;100150.53;5072251;28;20452;-68
2023/05/29 02:07:08;;;;;;;9.07;4.85;;;;;;;23.56;40.32;100148.84;5072386;28;20056;-68
2023/05/29 02:09:37;;;;;;;7.45;4.72;;;;;;;23.54;40.27;100139.97;5072021;28;20493;-68
2023/05/29 02:12:05;;;;;;;8.68;4.50;;;;;;;23.53;40.28;100143.72;5072158;28;20056;-68
2023/05/29 02:14:34;;;;;;;7.72;4.60;;;;;;;23.52;40.35;100145.59;5072113;28;20131;-68
2023/05/29 02:17:04;;;;;;;7.07;4.10;;;;;;;23.52;40.33;100147.47;5071774;28;20044;-68
2023/05/29 02:19:32;;;;;;;8.88;4.43;;;;;;;23.50;40.29;100144.09;5071945;28;20410;-68
2023/05/29 02:22:00;;;;;;;6.40;4.20;;;;;;;23.51;40.26;100151.22;5072027;28;20051;-68
2023/05/29 02:24:28;;;;;;;7.57;4.10;;;;;;;23.49;40.33;100145.13;5072051;28;20049;-68
2023/05/29 02:26:57;;;;;;;8.73;4.55;;;;;;;23.47;40.41;100139.88;5071888;28;20056;-68
2023/05/29 02:29:25;;;;;;;7.32;4.30;;;;;;;23.46;40.36;100140.03;5071789;28;20378;-68
2023/05/29 02:31:53;;;;;;;6.93;4.75;;;;;;;23.46;40.52;100140.88;5071576;28;20045;-68
2023/05/29 02:34:23;;;;;;;7.55;4.40;;;;;;;23.43;40.51;100142.06;5071907;28;20064;-68
2023/05/29 02:36:52;;;;;;;7.00;4.60;;;;;;;23.45;40.49;100135.59;5071693;28;20044;-68
2023/05/29 02:39:21;;;;;;;7.68;4.53;;;;;;;23.43;40.53;100139.34;5071623;28;20057;-68
2023/05/29 02:41:49;;;;;;;7.18;4.43;;;;;;;23.41;40.55;100129.69;5071896;28;20080;-68
2023/05/29 02:44:17;;;;;;;7.10;4.53;;;;;;;23.41;40.67;100135.13;5071583;28;20041;-68
2023/05/29 02:46:46;;;;;;;7.35;4.43;;;;;;;23.40;40.60;100130.69;5071733;28;20052;-68
2023/05/29 02:49:14;;;;;;;6.60;4.53;;;;;;;23.39;40.67;100131.72;5071536;28;20479;-68
2023/05/29 02:51:44;;;;;;;6.88;4.50;;;;;;;23.37;40.76;100126.47;5071578;28;20132;-68
2023/05/29 02:54:13;;;;;;;6.90;4.40;;;;;;;23.36;40.78;100122.06;5071596;28;20078;-68
2023/05/29 02:56:42;;;;;;;7.03;4.57;;;;;;;23.35;40.83;100125.78;5071494;28;20052;-68
2023/05/29 02:59:10;;;;;;;6.95;4.55;;;;;;;23.34;40.69;100121.34;5071194;28;20053;-68
2023/05/29 03:01:38;;;;;;;7.07;4.25;;;;;;;23.34;40.94;100128.69;5070899;28;20058;-68
2023/05/29 03:04:07;;;;;;;7.93;4.57;;;;;;;23.33;40.92;100127.84;5071373;28;20109;-68
2023/05/29 03:06:36;;;;;;;9.32;4.88;;;;;;;23.32;40.87;100136.19;5071301;28;20055;-68
2023/05/29 03:09:06;;;;;;;7.43;4.80;;;;;;;23.31;40.96;100129.03;5071179;28;20143;-68
2023/05/29 03:11:35;;;;;;;6.80;4.40;;;;;;;23.30;41.05;100128.19;5070933;28;20535;-68
2023/05/29 03:14:03;;;;;;;6.75;4.00;;;;;;;23.29;40.80;100140.13;5071108;28;20056;-68
2023/05/29 03:16:32;;;;;;;7.97;4.60;;;;;;;23.29;41.20;100126.50;5071243;28;20040;-68
2023/05/29 03:19:00;;;;;;;9.40;4.68;;;;;;;23.28;41.21;100126.69;5071038;28;20052;-68
2023/05/29 03:21:29;;;;;;;7.32;4.82;;;;;;;23.26;41.02;100126.88;5071197;28;20393;-68
2023/05/29 03:23:59;;;;;;;8.52;4.40;;;;;;;23.26;41.16;100131.44;5071064;28;20066;-68
2023/05/29 03:26:29;;;;;;;8.70;4.38;;;;;;;23.25;41.18;100135.19;5070923;28;20096;-68
2023/05/29 03:28:57;;;;;;;7.82;4.35;;;;;;;23.24;41.15;100136.22;5071168;28;20053;-68
2023/05/29 03:31:25;;;;;;;6.57;4.32;;;;;;;23.24;41.37;100136.22;5070949;28;20057;-68
2023/05/29 03:33:57;;;;;;;7.68;4.60;;;;;;;23.22;41.19;100136.41;5070919;28;20470;-68
2023/05/29 03:36:25;;;;;;;7.13;4.47;;;;;;;23.22;41.24;100146.44;5070921;28;20512;-68
2023/05/29 03:38:53;;;;;;;6.85;4.40;;;;;;;23.22;41.14;100144.56;5070784;28;20229;-68
2023/05/29 03:41:21;;;;;;;6.72;4.13;;;;;;;23.21;41.15;100150.19;5071030;28;20056;-68
2023/05/29 03:43:51;;;;;;;6.80;4.32;;;;;;;23.20;41.04;100149.34;5071101;28;20060;-68
2023/05/29 03:46:20;;;;;;;7.07;4.40;;;;;;;23.20;41.41;100159.38;5070931;28;20106;-68
2023/05/29 03:48:48;;;;;;;7.15;4.38;;;;;;;23.20;41.28;100167.53;5070831;28;20049;-68
2023/05/29 03:51:16;;;;;;;7.28;4.65;;;;;;;23.19;41.36;100169.41;5070646;28;20055;-68
2023/05/29 03:53:44;;;;;;;6.82;4.10;;;;;;;23.17;41.56;100166.03;5071054;28;20044;-68
2023/05/29 03:56:13;;;;;;;7.90;4.80;;;;;;;23.18;41.50;100164.16;5070901;28;20040;-68
2023/05/29 03:58:41;;;;;;;8.68;4.47;;;;;;;23.17;41.50;100171.47;5070875;28;20075;-68
2023/05/29 04:01:10;;;;;;;7.20;4.82;;;;;;;23.17;41.56;100168.75;5070884;28;20155;-68
2023/05/29 04:03:39;;;;;;;7.43;4.72;;;;;;;23.17;41.54;100170.63;5070693;28;20044;-68
2023/05/29 04:06:08;;;;;;;6.75;4.32;;;;;;;23.16;41.58;100174.34;5070604;28;20045;-68
2023/05/29 04:08:36;;;;;;;7.57;4.15;;;;;;;23.15;41.32;100168.03;5070846;28;20127;-68
2023/05/29 04:11:05;;;;;;;5.82;4.07;;;;;;;23.14;41.18;100167.19;5070681;28;20124;-68
2023/05/29 04:13:33;;;;;;;7.72;4.50;;;;;;;23.15;41.38;100157.16;5073337;28;20055;-68
2023/05/29 04:16:01;;;;;;;6.53;4.38;;;;;;;23.15;41.20;100168.03;5074278;28;20106;-68
2023/05/29 04:18:31;;;;;;;6.30;4.18;;;;;;;23.16;41.35;100174.34;5074149;28;20505;-68
2023/05/29 04:20:59;;;;;;;7.93;4.75;;;;;;;23.16;41.24;100168.88;5074457;28;20170;-68
2023/05/29 04:23:27;;;;;;;7.57;4.80;;;;;;;23.15;41.48;100168.03;5074479;28;20049;-68
2023/05/29 04:25:55;;;;;;;7.45;4.50;;;;;;;23.15;41.38;100173.47;5074259;28;20048;-68
2023/05/29 04:28:27;;;;;;;7.22;4.53;;;;;;;23.15;41.50;100178.94;5074141;28;20099;-68
2023/05/29 04:30:56;;;;;;;6.55;4.28;;;;;;;23.14;41.50;100175.34;5073983;28;20051;-68
2023/05/29 04:33:24;;;;;;;8.82;4.95;;;;;;;23.15;41.57;100178.94;5074447;28;20095;-68
2023/05/29 04:35:54;;;;;;;6.47;4.60;;;;;;;23.14;41.48;100174.50;5074079;28;20064;-68
2023/05/29 04:38:24;;;;;;;7.07;4.40;;;;;;;23.14;41.51;100179.94;5073910;28;20055;-68
2023/05/29 04:40:57;;;;;;;6.95;4.65;;;;;;;23.13;41.56;100173.66;5073985;28;20076;-68
2023/05/29 04:43:26;;;;;;;9.00;4.78;;;;;;;23.14;41.59;100174.50;5073737;28;20045;-68
2023/05/29 04:45:55;;;;;;;7.00;4.55;;;;;;;23.16;41.54;100174.34;5074050;28;20044;-68
2023/05/29 04:48:23;;;;;;;7.10;4.72;;;;;;;23.16;41.40;100174.34;5073990;28;20044;-66
2023/05/29 04:50:51;;;;;;;8.23;4.60;;;;;;;23.15;41.51;100178.94;5073838;28;20040;-68
2023/05/29 04:53:21;;;;;;;7.60;4.43;;;;;;;23.15;41.45;100184.38;5073750;28;20448;-68
2023/05/29 04:55:50;;;;;;;5.72;4.15;;;;;;;23.15;41.44;100178.94;5073730;28;20048;-68
2023/05/29 04:58:18;;;;;;;6.95;4.65;;;;;;;23.16;41.58;100179.78;5073642;28;20079;-68
2023/05/29 05:00:47;;;;;;;6.53;4.30;;;;;;;23.17;41.79;100181.50;5073794;28;20084;-67
2023/05/29 05:03:16;;;;;;;6.38;4.15;;;;;;;23.16;41.62;100180.63;5073681;28;20090;-68
2023/05/29 05:05:45;;;;;;;6.55;4.47;;;;;;;23.16;41.56;100183.34;5073539;28;20127;-68
2023/05/29 05:08:13;;;;;;;9.18;4.40;;;;;;;23.17;41.57;100186.94;5073708;28;20044;-68
2023/05/29 05:10:43;;;;;;;6.30;4.35;;;;;;;23.16;41.56;100185.22;5073380;28;20055;-68
2023/05/29 05:13:12;;;;;;;6.45;4.55;;;;;;;23.17;41.50;100193.22;5073385;28;20501;-68
2023/05/29 05:15:40;;;;;;;7.18;4.28;;;;;;;23.18;41.74;100191.34;5073235;28;20136;-68
2023/05/29 05:18:08;;;;;;;6.75;4.43;;;;;;;23.18;41.82;100183.19;5073454;28;20056;-68
2023/05/29 05:20:36;;;;;;;8.38;4.55;;;;;;;23.18;41.82;100189.47;5073121;28;20154;-68
2023/05/29 05:23:05;;;;;;;6.88;4.43;;;;;;;23.18;41.71;100194.91;5073223;28;20041;-68
2023/05/29 05:25:34;;;;;;;8.10;4.70;;;;;;;23.19;41.79;100191.19;5072462;28;20049;-68
2023/05/29 05:28:04;;;;;;;7.80;4.78;;;;;;;23.20;41.75;100189.31;5073233;28;20405;-68
2023/05/29 05:30:32;;;;;;;6.85;4.63;;;;;;;23.20;41.68;100192.03;5073065;28;20045;-68
2023/05/29 05:33:01;;;;;;;7.10;4.70;;;;;;;23.21;41.81;100188.28;5072984;28;20094;-68
2023/05/29 05:35:29;;;;;;;7.18;4.18;;;;;;;23.20;42.04;100187.44;5072962;28;20048;-68
2023/05/29 05:37:58;;;;;;;8.63;4.70;;;;;;;23.20;41.75;100190.16;5072691;28;20048;-68
2023/05/29 05:40:26;;;;;;;7.22;4.82;;;;;;;23.21;41.95;100188.28;5072562;28;20102;-68
2023/05/29 05:42:54;;;;;;;6.80;3.85;;;;;;;23.20;41.76;100187.44;5072820;28;20413;-68
2023/05/29 05:45:24;;;;;;;6.57;3.75;;;;;;;23.22;41.86;100187.25;5072820;28;20051;-68
2023/05/29 05:47:52;;;;;;;8.20;4.43;;;;;;;23.22;41.98;100190.81;5072528;28;20045;-68
2023/05/29 05:50:21;;;;;;;7.25;4.50;;;;;;;23.22;42.10;100185.38;5072534;28;20041;-68
2023/05/29 05:52:49;;;;;;;5.85;4.38;;;;;;;23.23;41.94;100195.22;5072767;28;20101;-68
2023/05/29 05:55:18;;;;;;;6.18;4.32;;;;;;;23.23;42.00;100189.78;5072668;28;20044;-68
2023/05/29 05:57:46;;;;;;;8.30;4.70;;;;;;;23.24;42.13;100194.19;5072427;28;20064;-68
2023/05/29 06:00:15;;;;;;;7.43;4.47;;;;;;;23.25;42.01;100195.91;5072391;28;20088;-69
2023/05/29 06:02:45;;;;;;;7.40;4.55;;;;;;;23.25;42.08;100200.50;5072300;28;20048;-67
2023/05/29 06:05:14;;;;;;;6.95;4.75;;;;;;;23.26;42.06;100202.19;5072096;28;20045;-67
2023/05/29 06:07:42;;;;;;;7.13;4.78;;;;;;;23.26;42.15;100208.50;5071883;28;20424;-67
2023/05/29 06:10:10;;;;;;;7.32;4.78;;;;;;;23.27;41.98;100204.75;5072288;28;20044;-67
2023/05/29 06:12:38;;;;;;;7.35;4.40;;;;;;;23.27;42.07;100199.31;5072024;28;20056;-67
2023/05/29 06:15:08;;;;;;;7.68;4.63;;;;;;;23.27;42.31;100207.47;5072000;28;20477;-68
2023/05/29 06:17:36;;;;;;;6.95;4.78;;;;;;;23.28;42.17;100211.91;5071933;28;20120;-68
2023/05/29 06:20:10;;;;;;;6.35;4.35;;;;;;;23.29;42.29;100213.59;5071982;28;20087;-68
2023/05/29 06:22:38;;;;;;;7.63;4.90;;;;;;;23.30;42.24;100214.44;5072064;28;20386;-68
2023/05/29 06:25:08;;;;;;;7.30;4.93;;;;;;;23.30;42.23;100214.44;5072254;28;20143;-69
2023/05/29 06:27:37;;;;;;;8.27;4.82;;;;;;;23.30;42.34;100220.72;5071888;28;20049;-68
2023/05/29 06:30:06;;;;;;;8.02;4.97;;;;;;;23.31;42.31;100216.97;5071720;28;20087;-67
2023/05/29 06:32:34;;;;;;;6.63;4.35;;;;;;;23.32;42.31;100224.13;5071746;28;20045;-68
2023/05/29 06:35:07;;;;;;;7.65;4.80;;;;;;;23.32;42.34;100221.38;5071634;28;20044;-67
2023/05/29 06:37:35;;;;;;;6.70;4.55;;;;;;;23.33;42.46;100223.09;5071170;28;20401;-67
2023/05/29 06:40:05;;;;;;;7.93;4.63;;;;;;;23.34;42.51;100222.06;5071504;28;20080;-67
2023/05/29 06:42:44;;;;;;;6.97;4.57;;;;;;;23.34;42.49;100222.06;5071570;28;20040;-67
2023/05/29 06:45:14;;;;;;;7.53;4.95;;;;;;;23.35;42.69;100218.31;5071755;28;20052;-67
2023/05/29 06:47:43;;;;;;;7.53;4.40;;;;;;;23.37;42.53;100219.00;5071446;28;20543;-67
2023/05/29 06:50:13;;;;;;;8.05;4.85;;;;;;;23.38;42.81;100220.69;5071440;28;20044;-67
2023/05/29 06:52:41;;;;;;;6.60;4.75;;;;;;;23.39;42.67;100230.56;5071556;28;20072;-67
2023/05/29 06:55:10;;;;;;;7.75;5.00;;;;;;;23.39;42.71;100214.22;5071217;28;20052;-67
2023/05/29 06:57:38;;;;;;;7.40;4.68;;;;;;;23.40;42.73;100215.06;5071263;28;20048;-67
2023/05/29 07:00:10;;;;;;;7.20;4.60;;;;;;;23.41;42.82;100217.63;5071414;28;20045;-67
2023/05/29 07:02:38;;;;;;;8.88;5.05;;;;;;;23.42;42.81;100224.75;5071373;28;20094;-67
2023/05/29 07:05:07;;;;;;;7.43;4.90;;;;;;;23.43;42.85;100220.16;5071296;28;20475;-67
2023/05/29 07:07:37;;;;;;;7.80;4.82;;;;;;;23.43;42.91;100221.00;5071105;28;20049;-67
2023/05/29 07:10:06;;;;;;;8.73;4.90;;;;;;;23.46;43.05;100224.41;5071164;28;20044;-67
2023/05/29 07:12:34;;;;;;;7.22;4.72;;;;;;;23.48;42.94;100219.66;5065230;28;20044;-67
2023/05/29 07:15:02;;;;;;;6.75;4.63;;;;;;;23.47;43.05;100226.97;5051500;28;20071;-69
2023/05/29 07:17:30;;;;;;;7.55;5.03;;;;;;;23.48;43.05;100222.38;5063409;28;20123;-68
2023/05/29 07:19:58;;;;;;;8.00;4.82;;;;;;;23.49;42.98;100227.63;5070988;28;20048;-68
2023/05/29 07:22:27;;;;;;;6.63;4.68;;;;;;;23.50;43.08;100223.88;5071059;28;20140;-67
2023/05/29 07:24:56;;;;;;;7.65;4.80;;;;;;;23.52;43.15;100229.16;5071064;28;20052;-67
2023/05/29 07:27:24;;;;;;;7.60;4.78;;;;;;;23.53;43.28;100230.84;5071279;28;20048;-68
2023/05/29 07:29:52;;;;;;;8.10;4.90;;;;;;;23.53;43.17;100236.28;5071071;28;20049;-68
2023/05/29 07:32:21;;;;;;;8.15;5.10;;;;;;;23.55;43.17;100245.16;5070680;28;20048;-69
2023/05/29 07:34:50;;;;;;;8.23;4.75;;;;;;;23.56;43.05;100246.84;5067349;28;20068;-67
2023/05/29 07:37:19;;;;;;;6.35;4.38;;;;;;;23.56;43.44;100246.84;5073235;28;20057;-65
2023/05/29 07:39:47;;;;;;;6.53;4.47;;;;;;;23.57;43.30;100248.53;5070806;28;20464;-66
2023/05/29 07:42:16;;;;;;;6.72;4.40;;;;;;;23.59;43.59;100254.69;5070735;28;20049;-65
2023/05/29 07:44:45;;;;;;;9.07;4.88;;;;;;;23.60;43.80;100257.22;5070492;28;20505;-65
2023/05/29 07:47:14;;;;;;;7.20;4.55;;;;;;;23.61;43.82;100258.91;5071283;28;20456;-65
2023/05/29 07:49:43;;;;;;;7.93;4.70;;;;;;;23.62;43.91;100268.78;5079657;28;20050;-67
2023/05/29 07:52:11;;;;;;;7.47;4.75;;;;;;;23.65;44.06;100273.03;5074654;28;20052;-65
2023/05/29 07:54:39;;;;;;;7.47;4.90;;;;;;;23.65;44.08;100267.59;5074776;28;20394;-66
2023/05/29 07:57:09;;;;;;;7.72;4.78;;;;;;;23.66;43.87;100272.00;5074734;28;20146;-66
2023/05/29 07:59:41;;;;;;;8.10;4.45;;;;;;;23.68;43.93;100268.09;5074744;28;20506;-66
2023/05/29 08:02:09;;;;;;;7.22;4.57;;;;;;;23.69;43.89;100261.59;5074445;28;20055;-66
2023/05/29 08:04:41;;;;;;;6.55;4.50;;;;;;;23.71;43.92;100261.44;5074712;28;20057;-66
2023/05/29 08:07:09;;;;;;;6.35;4.28;;;;;;;23.73;43.93;100262.09;5074471;28;20084;-66
2023/05/29 08:09:37;;;;;;;6.38;4.38;;;;;;;23.74;43.92;100255.66;5074676;28;20401;-66
2023/05/29 08:12:06;;;;;;;9.73;4.65;;;;;;;23.75;43.93;100251.91;5074327;28;20055;-66
2023/05/29 08:14:35;;;;;;;8.27;4.55;;;;;;;23.77;43.79;100254.44;5074280;28;20047;-66
2023/05/29 08:17:04;;;;;;;6.50;4.60;;;;;;;23.78;43.98;100251.53;5074399;28;20052;-66
2023/05/29 08:19:33;;;;;;;7.35;4.53;;;;;;;23.80;43.94;100243.19;5074266;28;20040;-66
2023/05/29 08:22:01;;;;;;;7.88;4.60;;;;;;;23.80;44.06;100246.75;5074370;28;20059;-66
2023/05/29 08:24:29;;;;;;;7.35;4.35;;;;;;;23.83;44.06;100249.09;5074347;28;20044;-66
2023/05/29 08:26:57;;;;;;;6.22;4.22;;;;;;;23.84;44.04;100245.38;5074111;28;20044;-66
2023/05/29 08:29:26;;;;;;;7.05;4.40;;;;;;;23.85;43.94;100241.63;5073930;28;20054;-66
2023/05/29 08:31:54;;;;;;;6.20;4.18;;;;;;;23.87;44.18;100245.00;5074077;28;20049;-66
2023/05/29 08:34:23;;;;;;;7.38;4.60;;;;;;;23.88;44.06;100241.25;5074147;28;20041;-65
2023/05/29 08:36:54;;;;;;;7.43;4.15;;;;;;;23.89;44.09;100236.66;5074156;28;20056;-67
2023/05/29 08:39:23;;;;;;;9.98;4.72;;;;;;;23.91;44.22;100240.06;5073914;28;20048;-66
2023/05/29 08:42:00;;;;;;;7.63;4.32;;;;;;;23.92;44.10;100242.59;5073675;28;20044;-66
2023/05/29 08:44:32;;;;;;;7.85;4.32;;;;;;;23.95;44.15;100239.53;5074020;28;20122;-66
2023/05/29 08:47:04;;;;;;;6.03;4.10;;;;;;;23.95;44.19;100231.34;5073888;28;20052;-65
2023/05/29 08:49:43;;;;;;;8.77;4.15;;;;;;;23.98;44.20;100239.16;5073705;28;20048;-67
2023/05/29 08:52:16;;;;;;;6.20;4.30;;;;;;;23.99;44.24;100238.13;5073575;28;20131;-67
2023/05/29 08:54:45;;;;;;;9.45;4.63;;;;;;;24.02;44.36;100241.50;5073331;28;20124;-66
2023/05/29 08:57:13;;;;;;;6.38;4.28;;;;;;;24.03;44.41;100237.75;5054687;28;20049;-66
2023/05/29 08:59:44;;;;;;;8.25;4.20;;;;;;;24.05;44.56;100238.44;5072677;28;20055;-67
2023/05/29 09:02:12;;;;;;;7.28;4.78;;;;;;;24.08;44.53;100240.81;5073679;28;20052;-66
2023/05/29 09:04:44;;;;;;;6.95;4.65;;;;;;;24.08;44.42;100236.22;5073543;28;20057;-67
2023/05/29 09:07:14;;;;;;;7.97;4.30;;;;;;;24.10;44.54;100239.59;5072882;28;20041;-65
2023/05/29 09:09:42;;;;;;;10.52;4.85;;;;;;;24.13;44.70;100241.13;5074457;28;20044;-65
2023/05/29 09:12:10;;;;;;;6.60;4.15;;;;;;;24.14;44.73;100242.81;5072756;28;20060;-66
2023/05/29 09:14:42;;;;;;;8.27;4.38;;;;;;;24.16;44.58;100238.03;5072106;28;20103;-67
2023/05/29 09:17:11;;;;;;;7.53;4.50;;;;;;;24.18;44.51;100235.97;5072842;28;20410;-66
2023/05/29 09:19:41;;;;;;;7.07;4.38;;;;;;;24.18;44.58;100241.44;5070558;28;20305;-67
2023/05/29 09:22:14;;;;;;;7.13;4.88;;;;;;;24.21;44.69;100238.31;5072574;28;20135;-68
2023/05/29 09:24:46;;;;;;;7.03;4.32;;;;;;;24.22;44.78;100235.44;5072955;28;20055;-67
2023/05/29 09:27:15;;;;;;;8.45;4.50;;;;;;;24.23;44.74;100239.03;5072832;28;20350;-65
2023/05/29 09:29:45;;;;;;;10.80;4.65;;;;;;;24.25;44.84;100232.34;5072610;28;20052;-66
2023/05/29 09:32:17;;;;;;;6.93;4.50;;;;;;;24.27;44.83;100237.63;5071600;28;20047;-64
2023/05/29 09:34:45;;;;;;;6.93;4.40;;;;;;;24.30;44.80;100242.69;5072665;28;20152;-65
2023/05/29 09:37:17;;;;;;;9.43;4.82;;;;;;;24.30;44.83;100234.53;5072386;28;20440;-65
2023/05/29 09:39:47;;;;;;;10.65;4.60;;;;;;;24.31;44.82;100233.50;5072586;28;20049;-65
2023/05/29 09:42:15;;;;;;;8.70;4.55;;;;;;;24.32;44.76;100237.97;5072131;28;20399;-66
2023/05/29 09:44:46;;;;;;;8.90;4.88;;;;;;;24.35;44.70;100248.50;5072504;28;20052;-65
2023/05/29 09:47:16;;;;;;;7.68;4.65;;;;;;;24.35;44.78;100244.94;5072109;28;20382;-66
2023/05/29 09:49:46;;;;;;;10.23;4.43;;;;;;;24.36;44.68;100243.88;5072589;28;20051;-67
2023/05/29 09:52:16;;;;;;;7.03;4.45;;;;;;;24.37;44.98;100240.97;5071965;28;20093;-66
2023/05/29 09:54:46;;;;;;;8.15;4.60;;;;;;;24.39;45.05;100243.50;5072228;28;20383;-65
2023/05/29 09:57:15;;;;;;;8.38;4.82;;;;;;;24.38;45.04;100248.13;5071997;28;20052;-67
2023/05/29 09:59:51;;;;;;;8.15;4.93;;;;;;;24.40;45.21;100248.78;5071812;28;20507;-64
2023/05/29 10:02:19;;;;;;;7.45;4.72;;;;;;;24.42;45.13;100246.75;5071617;28;20044;-63
2023/05/29 10:04:50;;;;;;;11.23;4.88;;;;;;;24.44;45.29;100257.47;5071737;28;20074;-68
2023/05/29 10:07:26;;;;;;;8.18;4.78;;;;;;;24.44;45.09;100258.31;5071772;28;20055;-67
2023/05/29 10:10:01;;;;;;;9.98;5.10;;;;;;;24.46;44.98;100255.41;5051787;28;20048;-68
2023/05/29 10:12:30;;;;;;;10.15;5.05;;;;;;;24.48;45.05;100256.91;5051284;28;20076;-67
2023/05/29 10:15:00;;;;;;;12.30;5.13;;;;;;;24.48;45.57;100262.34;5051551;28;20084;-68
2023/05/29 10:17:34;;;;;;;9.65;5.20;;;;;;;24.49;45.33;100261.31;5051817;28;20049;-67
2023/05/29 10:20:06;;;;;;;9.85;5.18;;;;;;;24.51;45.47;100264.75;5052484;28;20049;-66
2023/05/29 10:22:40;;;;;;;10.18;5.00;;;;;;;24.51;45.52;100262.03;5070761;28;20149;-66
2023/05/29 10:25:11;;;;;;;8.50;4.82;;;;;;;24.52;45.65;100260.97;5069068;28;20400;-66
2023/05/29 10:27:40;;;;;;;9.10;4.70;;;;;;;24.53;45.45;100259.94;5070336;28;20515;-67
2023/05/29 10:30:15;;;;;;;9.88;5.20;;;;;;;24.53;45.61;100262.69;5070495;28;20052;-66
2023/05/29 10:33:00;;;;;;;8.63;4.88;;;;;;;24.54;45.61;100264.38;5070386;28;20048;-66
2023/05/29 10:35:38;;;;;;;9.63;4.95;;;;;;;24.54;45.91;100258.91;5069221;28;20040;-67
2023/05/29 10:38:13;;;;;;;8.02;4.88;;;;;;;24.55;46.08;100252.44;5068720;28;20044;-66
2023/05/29 10:40:42;;;;;;;10.73;4.97;;;;;;;24.57;45.84;100262.31;5070662;28;20052;-67
2023/05/29 10:43:11;;;;;;;10.63;4.70;;;;;;;24.57;46.07;100254.13;5070160;28;20466;-66
2023/05/29 10:45:54;;;;;;;8.90;4.72;;;;;;;24.58;45.83;100248.47;5070836;28;20044;-66
2023/05/29 10:48:42;;;;;;;8.48;5.38;;;;;;;24.60;45.76;100245.56;5067975;28;20401;-67
2023/05/29 10:51:27;;;;;;;10.20;4.70;;;;;;;24.61;45.92;100247.25;5068783;28;20147;-67
2023/05/29 10:53:56;;;;;;;10.73;4.80;;;;;;;24.62;45.93;100248.97;5069586;28;20040;-66
2023/05/29 10:56:30;;;;;;;9.30;4.95;;;;;;;24.62;46.08;100244.38;5068243;28;20070;-66
2023/05/29 10:59:01;;;;;;;9.27;5.10;;;;;;;24.62;46.10;100244.38;5070790;28;20129;-66
2023/05/29 11:01:31;;;;;;;8.33;4.93;;;;;;;24.63;46.17;100246.06;5070667;28;20121;-66
2023/05/29 11:04:27;;;;;;;8.65;4.90;;;;;;;24.64;45.73;100238.72;5069982;28;20575;-65
2023/05/29 11:06:55;;;;;;;7.57;4.97;;;;;;;24.64;45.66;100241.47;5069150;28;20158;-66
2023/05/29 11:09:34;;;;;;;7.60;4.65;;;;;;;24.64;45.54;100241.47;5070290;28;20120;-65
2023/05/29 11:12:33;;;;;;;7.80;4.68;;;;;;;24.65;45.51;100235.81;5070396;28;20473;-67
2023/05/29 11:15:06;;;;;;;8.18;4.72;;;;;;;24.67;45.28;100241.09;5058613;28;20041;-65
2023/05/29 11:17:46;;;;;;;8.65;4.63;;;;;;;24.68;45.57;100242.78;5067248;28;20078;-64
2023/05/29 11:20:38;;;;;;;9.18;5.05;;;;;;;24.70;45.73;100240.69;5064998;28;20049;-63
2023/05/29 11:23:08;;;;;;;10.00;4.90;;;;;;;24.70;45.65;100237.97;5066458;28;20119;-61
2023/05/29 11:25:38;;;;;;;10.70;4.85;;;;;;;24.71;45.59;100234.25;5070123;28;20037;-67
2023/05/29 11:28:10;;;;;;;8.90;4.85;;;;;;;24.72;45.57;100234.06;5070096;28;20044;-64
2023/05/29 11:30:46;;;;;;;8.18;4.40;;;;;;;24.73;45.68;100235.75;5070556;28;20459;-63
2023/05/29 11:33:24;;;;;;;9.85;4.85;;;;;;;24.75;45.58;100243.75;5070126;28;20044;-63
2023/05/29 11:36:00;;;;;;;8.57;5.00;;;;;;;24.77;45.58;100236.22;5070701;28;20098;-66
2023/05/29 11:38:29;;;;;;;10.10;5.00;;;;;;;24.76;45.73;100231.78;5070142;28;20131;-64